Latest Weather Observations for Kingaroy

IDQ60901

Issued at 11:01 am EST Tuesday 21 February 2017 (issued every 10 minutes, with the page automatically refreshed every 10 minutes)

About weather observations | Map of Brisbane area stations | Latest observations for Brisbane area | Other Formats
Station Details ID: 040922 Name: KINGAROY AIRPORT Lat: -26.57 Lon: 151.84 Height: 433.67 m
Data from the previous 72 hours. | See also: Recent months at Kingaroy
Date/Time
EST
Temp
°C
App
Temp
°C
Dew
Point
°C
Rel
Hum
%
Delta-T
°C
Wind Press
QNH
hPa
Press
MSL
hPa
Rain since
9am
mm
Dir  Spd
km/h
Gust
km/h
Spd
kts
Gust
kts
21/10:30am 28.3 28.8 18.4 55 6.4 ESE 13 17 7 9 1018.6 1016.2 0.0
21/10:00am 27.2 27.2 17.1 54 6.4 E 13 24 7 13 1018.9 1016.5 0.0
21/09:30am 25.8 27.0 19.0 66 4.4 ESE 11 17 6 9 1019.0 1016.6 0.0
21/09:20am 25.0 26.3 18.4 66 4.2 SE 9 17 5 9 1019.1 1016.7 0.0
21/09:00am 24.7 25.4 18.9 70 3.8 ESE 13 19 7 10 1019.2 1016.8 0.0
21/08:30am 22.4 22.9 18.4 78 2.6 ESE 13 20 7 11 1019.1 1016.7 0.0
21/08:00am 22.0 22.9 19.2 84 1.8 ESE 13 17 7 9 1019.0 1016.6 0.0
21/07:30am 21.2 22.4 19.1 88 1.3 ESE 11 15 6 8 1018.4 1016.0 0.0
21/07:00am 20.9 22.5 19.2 90 1.1 SE 9 13 5 7 1018.2 1015.8 0.0
21/06:53am 20.8 23.1 19.8 94 0.6 ESE 7 11 4 6 1018.1 1015.7 0.0
21/06:30am 18.5 21.1 17.5 94 0.6 CALM 0 2 0 1 1017.9 1015.5 0.0
21/06:25am 18.2 20.2 17.0 93 0.7 N 2 6 1 3 1017.9 1015.5 0.0
21/06:00am 17.8 19.1 17.0 95 0.5 N 6 7 3 4 1017.6 1015.2 0.0
21/05:54am 17.7 18.8 16.7 94 0.6 N 6 7 3 4 1017.5 1015.1 0.0
21/05:48am 17.5 19.3 16.5 94 0.6 WNW 2 7 1 4 1017.4 1015.0 0.0
21/05:30am 18.0 19.6 17.0 94 0.6 SSW 4 7 2 4 1017.2 1014.8 0.0
21/05:00am 17.9 20.3 16.9 94 0.6 CALM 0 0 0 0 1016.8 1014.4 0.0
21/04:30am 17.8 20.1 16.8 94 0.6 CALM 0 0 0 0 1016.5 1014.0 0.0
21/04:04am 17.2 19.2 16.1 93 0.7 CALM 0 0 0 0 1016.0 1013.6 0.0
21/04:00am 17.1 19.1 16.0 93 0.7 CALM 0 0 0 0 1016.0 1013.6 0.0
21/03:30am 17.4 18.7 16.1 92 0.8 SSE 4 7 2 4 1015.8 1013.4 0.0
21/03:00am 17.7 18.5 16.4 92 0.8 SSW 7 9 4 5 1015.6 1013.2 0.0
21/02:30am 17.8 18.5 16.1 90 1.0 S 7 9 4 5 1015.6 1013.2 0.0
21/02:00am 18.2 19.8 16.0 87 1.3 SE 2 6 1 3 1015.4 1013.0 0.0
21/01:30am 18.6 19.5 16.0 85 1.6 SSE 6 9 3 5 1015.7 1013.3 0.0
21/01:00am 19.3 21.4 16.2 82 1.9 CALM 0 9 0 5 1015.9 1013.5 0.0
21/12:30am 20.0 22.4 17.0 83 1.9 CALM 0 0 0 0 1016.1 1013.7 0.0
21/12:00am 20.4 21.3 16.6 79 2.3 E 7 11 4 6 1016.1 1013.7 0.0
 
Date/Time
EST
Temp
°C
App
Temp
°C
Dew
Point
°C
Rel
Hum
%
Delta-T
°C
Wind Press
QNH
hPa
Press
MSL
hPa
Rain since
9am
mm
Dir  Spd
km/h
Gust
km/h
Spd
kts
Gust
kts
20/11:30pm 20.3 20.3 16.3 78 2.5 E 11 13 6 7 1016.2 1013.8 0.0
20/11:00pm 21.2 20.4 15.1 68 3.7 E 13 15 7 8 1016.2 1013.8 0.0
20/10:30pm 21.6 21.0 14.7 65 4.1 ESE 11 15 6 8 1016.1 1013.7 0.0
20/10:00pm 20.9 20.2 13.1 61 4.5 ESE 9 13 5 7 1016.0 1013.6 0.0
20/09:30pm 21.5 20.6 11.5 53 5.7 E 7 11 4 6 1016.0 1013.6 0.0
20/09:00pm 21.0 21.0 13.7 63 4.3 SSE 6 7 3 4 1015.6 1013.2 0.0
20/08:30pm 21.1 21.8 12.3 57 5.1 CALM 0 0 0 0 1015.1 1012.7 0.0
20/08:00pm 21.8 21.3 12.6 56 5.3 SSE 7 9 4 5 1014.8 1012.4 0.0
20/07:30pm 21.8 20.5 12.6 56 5.3 S 11 11 6 6 1014.3 1011.8 0.0
20/07:00pm 22.8 21.4 12.1 51 6.2 SSW 11 15 6 8 1013.4 1011.0 0.0
20/06:30pm 25.3 23.8 10.4 39 8.5 SW 9 11 5 6 1013.0 1010.6 0.0
20/06:00pm 26.9 25.2 9.7 34 9.7 SW 9 13 5 7 1012.7 1010.3 0.0
20/05:30pm 28.3 25.9 8.6 29 11.0 WSW 11 15 6 8 1012.2 1009.7 0.0
20/05:00pm 29.3 26.6 7.2 25 12.1 W 11 17 6 9 1011.8 1009.3 0.0
20/04:30pm 29.6 27.5 8.1 26 12.0 S 9 20 5 11 1011.6 1009.1 0.0
20/04:00pm 30.0 26.7 9.5 28 11.7 SSW 17 24 9 13 1011.5 1009.0 0.0
20/03:30pm 29.8 27.6 7.7 25 12.3 SSE 9 15 5 8 1011.2 1008.8 0.0
20/03:00pm 29.5 27.0 8.0 26 12.0 SSW 11 19 6 10 1011.3 1008.9 0.0
20/02:30pm 29.0 26.7 7.6 26 11.8 S 9 19 5 10 1011.3 1008.9 0.0
20/02:00pm 29.2 26.6 9.3 29 11.3 SSE 13 24 7 13 1011.8 1009.3 0.0
20/01:30pm 28.9 26.1 10.1 31 10.8 S 15 22 8 12 1012.1 1009.6 0.0
20/01:00pm 28.4 25.8 9.2 30 10.8 SSW 13 26 7 14 1012.4 1009.9 0.0
20/12:30pm 28.0 25.8 10.7 34 10.0 S 13 20 7 11 1012.5 1010.0 0.0
20/12:00pm 27.8 24.6 10.1 33 10.1 S 17 24 9 13 1013.0 1010.6 0.0
20/11:30am 28.0 24.9 10.2 33 10.2 S 17 24 9 13 1013.2 1010.8 0.0
20/11:00am 26.3 23.0 9.6 35 9.4 S 17 26 9 14 1013.7 1011.3 0.0
20/10:30am 25.1 21.2 10.9 41 8.1 SSE 22 32 12 17 1014.1 1011.6 0.0
20/10:00am 24.8 20.7 11.4 43 7.7 S 24 33 13 18 1014.2 1011.7 0.0
20/09:30am 25.2 22.1 13.4 48 7.0 S 22 32 12 17 1014.3 1011.8 0.0
20/09:00am 23.6 20.5 14.6 57 5.4 SSW 24 32 13 17 1014.2 1011.7 3.0
20/08:30am 23.2 20.6 16.0 64 4.4 S 24 33 13 18 1014.1 1011.6 3.0
20/08:00am 21.7 20.5 16.0 70 3.5 S 17 24 9 13 1013.7 1011.3 3.0
20/07:30am 20.9 22.7 17.3 80 2.2 SW 4 7 2 4 1013.6 1011.2 3.0
20/07:00am 19.8 22.2 17.9 89 1.2 W 2 9 1 5 1013.1 1010.7 3.0
20/06:30am 18.9 20.4 17.7 93 0.7 W 6 7 3 4 1012.7 1010.3 3.0
20/06:00am 18.5 19.9 17.3 93 0.7 WNW 6 7 3 4 1012.1 1009.6 3.0
20/05:30am 18.9 19.8 17.6 92 0.8 WNW 9 13 5 7 1011.5 1009.0 3.0
20/05:00am 19.0 20.5 18.0 94 0.6 WSW 7 11 4 6 1011.2 1008.8 3.0
20/04:30am 18.7 20.1 17.7 94 0.6 SW 7 9 4 5 1010.7 1008.3 3.0
20/04:00am 18.9 20.7 17.4 91 0.9 WSW 4 6 2 3 1010.5 1008.1 3.0
20/03:30am 19.2 21.5 17.7 91 0.9 NW 2 7 1 4 1010.4 1007.9 3.0
20/03:00am 19.4 22.0 17.5 89 1.2 CALM 0 0 0 0 1010.3 1007.8 3.0
20/02:30am 19.2 20.5 17.5 90 1.1 ENE 7 11 4 6 1010.2 1007.7 3.0
20/02:00am 19.5 20.4 17.6 89 1.2 E 9 13 5 7 1010.2 1007.7 3.0
20/01:30am 19.7 20.8 18.0 90 1.1 ENE 9 13 5 7 1010.7 1008.3 3.0
20/01:00am 19.9 23.0 18.7 93 0.8 CALM 0 0 0 0 1011.7 1009.2 2.8
20/12:30am 20.0 23.1 18.7 92 0.8 CALM 0 0 0 0 1012.2 1009.7 2.8
20/12:00am 20.2 23.2 18.5 90 1.1 CALM 0 0 0 0 1012.4 1009.9 2.6
 
Date/Time
EST
Temp
°C
App
Temp
°C
Dew
Point
°C
Rel
Hum
%
Delta-T
°C
Wind Press
QNH
hPa
Press
MSL
hPa
Rain since
9am
mm
Dir  Spd
km/h
Gust
km/h
Spd
kts
Gust
kts
19/11:30pm 20.4 22.2 18.3 88 1.3 WSW 6 9 3 5 1012.5 1010.0 1.8
19/11:00pm 20.9 22.7 18.7 87 1.4 WSW 7 11 4 6 1012.6 1010.2 0.8
19/10:30pm 21.6 22.5 18.4 82 2.0 SSW 11 15 6 8 1012.2 1009.7 0.0
19/10:00pm 22.5 23.4 18.5 78 2.6 WSW 11 20 6 11 1012.3 1009.8 0.0
19/09:30pm 22.8 24.9 20.1 85 1.8 SW 9 11 5 6 1012.1 1009.6 0.0
19/09:00pm 23.0 25.5 19.8 82 2.1 E 6 9 3 5 1011.5 1009.0 0.0
19/08:30pm 23.1 26.7 19.7 81 2.2 CALM 0 0 0 0 1011.3 1008.9 0.0
19/08:00pm 23.1 26.8 19.9 82 2.1 CALM 0 0 0 0 1011.2 1008.8 0.0
19/07:30pm 23.3 25.5 19.7 80 2.4 WNW 7 9 4 5 1010.7 1008.3 0.0
19/07:00pm 23.5 26.6 19.6 79 2.5 W 2 6 1 3 1009.8 1007.3 0.0
19/06:30pm 23.8 27.3 19.5 77 2.8 CALM 0 4 0 2 1009.1 1006.6 0.0
19/06:00pm 23.9 26.3 18.8 73 3.3 SSW 4 7 2 4 1008.8 1006.4 0.0
19/05:30pm 24.0 25.0 18.6 72 3.5 SW 11 15 6 8 1008.5 1006.1 0.0
19/05:00pm 24.3 24.6 18.7 71 3.6 SW 15 24 8 13 1008.2 1005.7 0.0
19/04:30pm 24.5 23.6 18.2 68 4.0 WSW 20 33 11 18 1008.3 1005.8 0.0
19/04:00pm 25.8 23.3 16.1 55 6.1 W 24 44 13 24 1008.4 1006.0 0.0
19/03:30pm 29.6 28.4 17.1 47 8.0 NW 19 26 10 14 1008.4 1006.0 0.0
19/03:00pm 28.6 29.5 18.4 54 6.7 WNW 11 17 6 9 1008.7 1006.3 0.0
19/02:30pm 28.6 29.1 17.5 51 7.1 NW 11 17 6 9 1009.1 1006.6 0.0
19/02:00pm 28.5 28.3 16.7 48 7.5 NW 13 19 7 10 1009.2 1006.7 0.0
19/01:30pm 28.1 27.3 17.0 51 7.1 NNW 17 22 9 12 1009.6 1007.1 0.0
19/01:00pm 28.2 27.7 17.7 53 6.8 NNW 17 24 9 13 1009.8 1007.3 0.0
19/12:30pm 28.3 27.3 16.6 49 7.4 N 17 22 9 12 1009.8 1007.3 0.0
19/12:00pm 28.8 28.0 17.0 49 7.5 NNW 17 24 9 13 1009.9 1007.4 0.0
19/11:30am 28.8 29.0 17.7 51 7.2 NNW 13 19 7 10 1010.4 1007.9 0.0
19/11:00am 28.0 27.2 17.2 52 6.9 NNW 17 20 9 11 1010.7 1008.3 0.0
19/10:30am 27.8 28.5 18.8 58 5.9 NW 13 19 7 10 1010.7 1008.3 0.0
19/10:00am 26.5 27.4 18.4 61 5.2 NNW 11 17 6 9 1010.8 1008.4 0.0
19/09:30am 26.1 27.2 18.0 61 5.2 NNW 9 13 5 7 1010.7 1008.3 0.0
19/09:00am 26.4 27.9 19.0 63 4.8 NNE 9 13 5 7 1010.6 1008.2 18.0
19/08:30am 23.8 25.6 18.7 73 3.3 NNE 7 9 4 5 1010.6 1008.2 17.8
19/08:00am 22.5 23.6 18.1 76 2.8 N 9 13 5 7 1010.7 1008.3 17.8
19/07:30am 22.3 24.3 17.9 76 2.8 NE 4 11 2 6 1010.7 1008.3 17.8
19/07:00am 20.6 23.2 18.5 88 1.3 E 2 9 1 5 1010.5 1008.1 17.8
19/06:30am 19.6 21.0 17.9 90 1.1 ENE 7 11 4 6 1010.5 1008.1 17.8
19/06:00am 19.1 21.5 17.9 93 0.8 NE 2 9 1 5 1010.6 1008.2 17.8
19/05:30am 18.9 20.4 17.6 92 0.8 E 6 9 3 5 1010.8 1008.4 17.8
19/05:00am 18.9 21.2 17.6 92 0.8 ENE 2 9 1 5 1010.9 1008.5 17.8
19/04:30am 19.0 21.7 17.7 92 0.8 CALM 0 0 0 0 1011.1 1008.7 17.8
19/04:00am 19.0 20.1 18.0 94 0.6 E 9 15 5 8 1010.7 1008.3 17.8
19/03:30am 18.9 21.2 17.6 92 0.8 SE 2 9 1 5 1011.5 1009.0 17.8
19/03:00am 18.9 19.8 17.6 92 0.8 SSE 9 15 5 8 1011.7 1009.2 16.8
19/02:30am 19.1 19.4 17.9 93 0.8 S 13 17 7 9 1012.0 1009.5 16.6
19/02:00am 19.5 20.8 18.5 94 0.6 SSE 9 13 5 7 1012.6 1010.2 16.0
19/01:30am 19.7 20.3 18.7 94 0.6 SSE 13 20 7 11 1013.1 1010.7 14.6
19/01:29am 19.6 19.8 18.6 94 0.6 SSE 15 20 8 11 1013.1 1010.7 14.6
19/01:19am 20.0 19.1 19.0 94 0.6 S 22 30 12 16 1013.2 1010.8 14.0
19/01:00am 21.0 23.0 20.0 94 0.7 SE 9 17 5 9 1013.2 1010.8 10.8
19/12:49am 21.1 23.4 19.9 93 0.8 ESE 7 13 4 7 1013.7 1011.3 7.2
19/12:33am 21.0 22.8 19.5 91 1.0 S 9 13 5 7 1013.3 1010.9 5.2
19/12:30am 21.1 23.3 19.6 91 1.0 SSW 7 11 4 6 1013.4 1011.0 3.6
19/12:14am 20.7 22.2 18.1 85 1.6 SSE 7 13 4 7 1013.3 1010.9 2.8
19/12:00am 21.4 21.0 18.8 85 1.7 SSW 19 24 10 13 1013.2 1010.8 2.2
 
Date/Time
EST
Temp
°C
App
Temp
°C
Dew
Point
°C
Rel
Hum
%
Delta-T
°C
Wind Press
QNH
hPa
Press
MSL
hPa
Rain since
9am
mm
Dir  Spd
km/h
Gust
km/h
Spd
kts
Gust
kts
18/11:56pm 21.6 20.9 18.2 81 2.2 SW 19 24 10 13 1013.1 1010.7 1.4
18/11:30pm 25.4 23.3 9.7 37 8.8 WSW 11 20 6 11 1013.0 1010.6 0.0
18/11:00pm 24.6 22.2 8.5 36 8.8 N 11 20 6 11 1011.9 1009.4 0.0
18/10:30pm 24.5 21.8 8.9 37 8.6 N 13 19 7 10 1011.1 1008.7 0.0
18/10:00pm 24.8 22.8 10.3 40 8.2 NNE 11 15 6 8 1010.8 1008.4 0.0
18/09:30pm 25.4 23.6 10.8 40 8.3 NNE 11 17 6 9 1010.6 1008.2 0.0
18/09:00pm 26.0 24.2 12.1 42 8.1 NE 13 22 7 12 1010.1 1007.6 0.0
18/08:30pm 26.8 24.8 13.9 45 7.8 NE 17 24 9 13 1009.6 1007.1 0.0
18/08:00pm 27.8 25.8 15.5 47 7.7 NNE 20 33 11 18 1008.9 1006.5 0.0
18/07:30pm 29.3 27.4 16.8 47 8.0 NNE 22 33 12 18 1008.5 1006.1 0.0
18/07:00pm 30.7 29.4 16.7 43 9.0 NNE 19 32 10 17 1008.0 1005.5 0.0
18/06:30pm 32.3 30.8 15.3 35 10.7 NNE 17 20 9 11 1007.6 1005.1 0.0
18/06:00pm 33.6 32.6 14.6 31 11.9 N 13 22 7 12 1007.4 1004.9 0.0
18/05:30pm 33.9 32.3 14.9 32 12.0 N 17 30 9 16 1007.4 1004.9 0.0
18/05:00pm 34.2 34.4 14.1 29 12.6 NNE 6 17 3 9 1007.5 1005.0 0.0
18/04:30pm 35.4 34.0 14.6 28 13.1 N 15 24 8 13 1007.8 1005.3 0.0
18/04:00pm 34.9 33.9 14.7 29 12.8 N 13 24 7 13 1008.3 1005.8 0.0
18/03:30pm 34.0 33.4 14.5 31 12.2 NNE 11 20 6 11 1008.7 1006.3 0.0
18/03:00pm 34.7 34.7 15.1 31 12.4 NE 9 19 5 10 1009.4 1006.9 0.0
18/02:30pm 35.8 35.7 15.0 29 13.2 WSW 9 17 5 9 1009.8 1007.3 0.0
18/02:00pm 34.9 33.9 14.7 29 12.7 WSW 13 22 7 12 1010.0 1007.5 0.0
18/01:30pm 34.7 33.3 15.6 32 12.2 WNW 17 24 9 13 1010.3 1007.8 0.0
18/01:00pm 33.6 32.2 15.6 34 11.4 NNW 17 33 9 18 1010.9 1008.5 0.0
18/12:30pm 32.8 31.1 15.8 36 10.8 NNW 19 32 10 17 1011.5 1009.0 0.0
18/12:00pm 32.5 31.0 16.3 37 10.4 NNW 19 26 10 14 1011.8 1009.3 0.0
18/11:30am 31.4 30.1 15.8 39 9.9 N 17 28 9 15 1012.3 1009.8 0.0

Latest Capital City Observations: Canberra | Sydney | Melbourne | Brisbane | Adelaide | Perth | Hobart | Darwin

Other Formats:

Comma delimited format used in spreadsheet applications
http://www.bom.gov.au/fwo/IDQ60901/IDQ60901.94549.axf

JavaScript Object Notation format (JSON) in row-major order
http://www.bom.gov.au/fwo/IDQ60901/IDQ60901.94549.json